TDCF/DCF METAR and TAF weather

Enter ICAO airport designator
Station Type Date Time Source
TDCF METAR 2019/02/17 16:00 UTC NOAA

TDCF 171600Z 15006KT 9999 SCT018 30/20 Q1018


Station Type Date Time Source
TDCF Decoded METAR 2019/02/17 16:00 UTC NOAA

Canefield Airport, Dominica (TDCF) 15-32N 061-24W 5M
Feb 17, 2019 - 11:00 AM EST / 2019.02.17 1600 UTC
Wind: from the SSE (150 degrees) at 7 MPH (6 KT):0
Visibility: greater than 7 mile(s):0
Sky conditions: partly cloudy
Temperature: 86 F (30 C)
Dew Point: 68 F (20 C)
Relative Humidity: 55%
Pressure (altimeter): 30.06 in. Hg (1018 hPa)
ob: TDCF 171600Z 15006KT 9999 SCT018 30/20 Q1018
cycle: 16

Station Type Date Time Source
TDCF TAF 2012/05/01 18:15 UTC NOAA

TAF TDCF 011600Z 0118/0218 110010KT 9999 SCT018 BKN030
TEMPO 0118/0206 6000 SHRA BKN014 BKN070


Example: see airport list